Time;durP1;ratioP1;P1;durP2;ratioP2;P2;SDS_P1;SDS_P2;PMS_P1;PMS_P2;Temp;Humidity;BMP_temperature;BMP_pressure;BME280_temperature;BME280_humidity;BME280_pressure;Samples;Min_cycle;Max_cycle;Signal;HPM_P1;HPM_P2
2024/03/29 00:02:37;;;;;;;3.60;2.33;;;24.30;45.60;;;;;;6145762;28;81844;-50
2024/03/29 00:05:38;;;;;;;8.60;2.13;;;24.30;45.60;;;;;;6145341;28;81430;-48
2024/03/29 00:08:38;;;;;;;4.75;2.35;;;24.40;45.60;;;;;;6154895;28;81735;-54
2024/03/29 00:11:39;;;;;;;5.78;2.70;;;24.30;45.60;;;;;;6159241;28;81628;-52
2024/03/29 00:14:39;;;;;;;2.75;2.10;;;24.30;45.50;;;;;;6153729;28;82285;-48
2024/03/29 00:17:40;;;;;;;2.72;1.90;;;24.30;45.50;;;;;;6158936;28;80973;-48
2024/03/29 00:20:40;;;;;;;2.53;1.70;;;24.30;45.50;;;;;;6159081;28;81467;-59
2024/03/29 00:23:43;;;;;;;2.25;1.90;;;24.30;45.60;;;;;;6157022;28;82265;-58
2024/03/29 00:26:44;;;;;;;3.20;2.05;;;24.30;45.60;;;;;;6157607;28;82617;-59
2024/03/29 00:29:47;;;;;;;1.85;1.50;;;24.30;45.60;;;;;;6139178;28;81715;-59
2024/03/29 00:32:47;;;;;;;2.25;1.70;;;24.30;45.60;;;;;;6156818;28;81346;-61
2024/03/29 00:35:48;;;;;;;2.15;1.67;;;24.30;45.60;;;;;;6153741;28;81290;-59
2024/03/29 00:38:48;;;;;;;2.00;1.70;;;24.30;45.60;;;;;;6144424;28;82320;-52
2024/03/29 00:41:49;;;;;;;2.92;1.80;;;24.30;45.50;;;;;;6157662;28;81375;-48
2024/03/29 00:44:50;;;;;;;2.67;1.58;;;24.30;45.40;;;;;;6153970;28;81911;-53
2024/03/29 00:47:50;;;;;;;2.55;1.60;;;24.30;45.40;;;;;;6158115;28;81597;-51
2024/03/29 00:50:51;;;;;;;4.03;1.67;;;24.30;45.30;;;;;;6157636;28;83260;-49
2024/03/29 00:53:52;;;;;;;2.20;1.50;;;24.30;45.30;;;;;;6155364;28;81594;-50
2024/03/29 00:56:52;;;;;;;2.33;1.70;;;24.30;45.30;;;;;;6156857;28;81269;-50
2024/03/29 00:59:53;;;;;;;5.35;2.00;;;24.30;45.30;;;;;;6158615;28;81257;-48
2024/03/29 01:02:53;;;;;;;1.92;1.52;;;24.30;45.20;;;;;;6153719;28;81031;-49
2024/03/29 01:05:54;;;;;;;3.00;1.83;;;24.30;45.20;;;;;;6165082;28;83318;-48
2024/03/29 01:08:54;;;;;;;3.85;1.30;;;24.30;45.20;;;;;;6152843;28;80613;-50
2024/03/29 01:11:55;;;;;;;1.77;1.38;;;24.30;45.20;;;;;;6153113;28;82514;-48
2024/03/29 01:14:55;;;;;;;2.20;1.50;;;24.30;45.20;;;;;;6152241;28;82116;-59
2024/03/29 01:17:56;;;;;;;2.85;1.45;;;24.30;45.20;;;;;;6153100;28;81188;-60
2024/03/29 01:20:57;;;;;;;2.85;1.65;;;24.30;45.10;;;;;;6156638;28;80872;-59
2024/03/29 01:23:57;;;;;;;3.03;1.63;;;24.20;45.10;;;;;;6162027;28;80460;-60
2024/03/29 01:26:58;;;;;;;1.60;1.30;;;24.30;45.20;;;;;;6165772;28;80113;-60
2024/03/29 01:29:59;;;;;;;3.05;1.42;;;24.20;45.10;;;;;;6151509;28;84974;-58
2024/03/29 01:32:59;;;;;;;2.58;1.50;;;24.30;45.20;;;;;;6164861;28;81511;-56
2024/03/29 01:36:00;;;;;;;2.92;1.70;;;24.20;45.70;;;;;;6165877;28;80520;-56
2024/03/29 01:39:00;;;;;;;1.63;1.50;;;24.20;45.10;;;;;;6151744;28;80962;-57
2024/03/29 01:42:01;;;;;;;2.38;1.40;;;24.30;45.20;;;;;;6152269;28;80902;-54
2024/03/29 01:45:02;;;;;;;2.47;1.33;;;24.20;45.00;;;;;;6152658;28;82506;-58
2024/03/29 01:48:03;;;;;;;1.73;1.40;;;24.30;45.00;;;;;;6151935;28;80952;-59
2024/03/29 01:51:04;;;;;;;2.13;1.60;;;24.30;45.00;;;;;;6159627;28;80678;-59
2024/03/29 01:54:05;;;;;;;3.28;1.10;;;24.30;45.10;;;;;;6157066;28;81149;-59
2024/03/29 01:57:05;;;;;;;2.05;1.60;;;24.30;45.10;;;;;;6165485;28;80612;-58
2024/03/29 02:00:06;;;;;;;2.00;1.45;;;24.30;45.20;;;;;;6149672;28;81340;-59
2024/03/29 02:03:12;;;;;;;3.25;1.67;;;24.30;45.00;;;;;;6166332;28;80702;-58
2024/03/29 02:06:13;;;;;;;4.03;1.58;;;24.30;45.00;;;;;;6165011;28;80736;-57
2024/03/29 02:09:13;;;;;;;3.92;1.90;;;24.30;45.10;;;;;;6165352;28;81071;-58
2024/03/29 02:12:14;;;;;;;1.63;1.27;;;24.30;45.10;;;;;;6152494;28;81834;-51
2024/03/29 02:15:15;;;;;;;2.40;1.58;;;24.30;45.10;;;;;;6152386;28;80302;-51
2024/03/29 02:18:15;;;;;;;1.88;1.50;;;24.30;45.30;;;;;;6152764;28;80534;-51
2024/03/29 02:21:16;;;;;;;1.63;1.42;;;24.20;45.20;;;;;;6151549;28;81313;-50
2024/03/29 02:24:17;;;;;;;1.85;1.30;;;24.30;45.20;;;;;;6150636;28;81623;-50
2024/03/29 02:27:18;;;;;;;2.63;1.17;;;24.30;45.00;;;;;;6153550;28;80759;-50
2024/03/29 02:30:18;;;;;;;1.38;1.23;;;24.30;45.00;;;;;;6155642;28;80833;-52
2024/03/29 02:33:19;;;;;;;1.83;1.15;;;24.30;44.90;;;;;;6167486;28;80249;-52
2024/03/29 02:36:19;;;;;;;1.73;1.10;;;24.20;44.90;;;;;;6155419;28;80406;-50
2024/03/29 02:39:20;;;;;;;1.40;0.90;;;24.20;45.60;;;;;;6154697;28;83514;-52
2024/03/29 02:42:21;;;;;;;1.77;1.40;;;24.20;44.90;;;;;;6154737;28;81092;-50
2024/03/29 02:45:21;;;;;;;1.75;1.10;;;24.20;45.00;;;;;;6155433;28;80577;-48
2024/03/29 02:48:22;;;;;;;2.42;1.33;;;24.20;44.90;;;;;;6154927;28;80435;-48
2024/03/29 02:51:22;;;;;;;1.98;1.33;;;24.20;44.90;;;;;;6154657;28;81218;-50
2024/03/29 02:54:23;;;;;;;1.60;1.13;;;24.20;44.80;;;;;;6155992;28;82656;-52
2024/03/29 02:57:23;;;;;;;1.25;1.15;;;24.20;44.80;;;;;;6166892;28;80849;-51
2024/03/29 03:00:24;;;;;;;3.08;1.20;;;24.20;44.70;;;;;;6158586;28;81337;-49
2024/03/29 03:03:24;;;;;;;1.98;1.23;;;24.20;44.90;;;;;;6149049;28;80576;-52
2024/03/29 03:06:25;;;;;;;2.28;1.33;;;24.20;45.00;;;;;;6153663;28;80274;-57
2024/03/29 03:12:44;;;;;;;1.90;1.00;;;24.30;44.90;;;;;;6165346;28;80556;-58
2024/03/29 03:15:45;;;;;;;3.42;1.00;;;24.30;44.70;;;;;;6169429;28;81480;-58
2024/03/29 03:18:45;;;;;;;1.73;1.00;;;24.20;44.70;;;;;;6166562;28;81636;-57
2024/03/29 03:21:46;;;;;;;1.42;1.13;;;24.20;44.70;;;;;;6155158;28;80732;-56
2024/03/29 03:24:46;;;;;;;2.42;1.33;;;24.20;44.60;;;;;;6163254;28;81059;-54
2024/03/29 03:27:47;;;;;;;2.42;1.20;;;24.20;44.60;;;;;;6160583;28;80677;-56
2024/03/29 03:30:47;;;;;;;2.70;1.15;;;24.20;44.60;;;;;;6155586;28;81142;-55
2024/03/29 03:33:48;;;;;;;1.98;1.08;;;24.10;44.50;;;;;;6163923;28;81704;-55
2024/03/29 03:36:48;;;;;;;1.58;0.90;;;24.10;44.50;;;;;;6164214;28;80403;-56
2024/03/29 03:39:49;;;;;;;3.53;0.98;;;24.20;44.50;;;;;;6154477;28;81107;-58
2024/03/29 03:42:49;;;;;;;1.23;1.00;;;24.20;44.40;;;;;;6155558;28;81015;-59
2024/03/29 03:45:50;;;;;;;1.35;0.90;;;24.10;44.80;;;;;;6155511;28;80255;-59
2024/03/29 03:48:50;;;;;;;1.17;0.95;;;24.10;44.40;;;;;;6158016;28;80386;-58
2024/03/29 03:51:52;;;;;;;1.00;0.90;;;24.10;44.40;;;;;;6162137;28;81758;-59
2024/03/29 03:54:52;;;;;;;1.50;1.10;;;24.10;44.30;;;;;;6147525;28;81163;-58
2024/03/29 03:57:53;;;;;;;1.42;1.00;;;24.10;44.30;;;;;;6147111;28;83972;-59
2024/03/29 04:00:53;;;;;;;1.30;1.10;;;24.10;44.30;;;;;;6145549;28;80760;-53
2024/03/29 04:03:54;;;;;;;1.25;0.98;;;24.10;44.40;;;;;;6151553;28;81303;-58
2024/03/29 04:06:54;;;;;;;1.38;1.00;;;24.20;44.70;;;;;;6161925;28;84148;-58
2024/03/29 04:09:55;;;;;;;1.20;0.93;;;24.20;44.70;;;;;;6159160;28;80524;-58
2024/03/29 04:12:55;;;;;;;0.95;0.70;;;24.20;44.70;;;;;;6164515;28;85029;-57
2024/03/29 04:15:56;;;;;;;1.65;0.88;;;24.20;44.70;;;;;;6155580;28;80800;-58
2024/03/29 04:18:56;;;;;;;0.65;0.65;;;24.10;44.50;;;;;;6152342;28;80338;-58
2024/03/29 04:21:57;;;;;;;1.60;1.00;;;24.20;44.90;;;;;;6159931;28;80875;-54
2024/03/29 04:24:58;;;;;;;2.28;0.90;;;24.20;44.90;;;;;;6153203;28;80263;-53
2024/03/29 04:27:58;;;;;;;1.52;1.10;;;24.20;44.70;;;;;;6152979;28;80797;-55
2024/03/29 04:30:59;;;;;;;0.68;0.68;;;24.10;44.50;;;;;;6154566;28;81722;-54
2024/03/29 04:34:00;;;;;;;3.40;1.10;;;24.10;44.40;;;;;;6159061;28;81381;-53
2024/03/29 04:37:00;;;;;;;8.13;0.95;;;24.10;44.30;;;;;;6165574;28;81277;-54
2024/03/29 04:40:01;;;;;;;1.10;0.80;;;24.10;44.30;;;;;;6153704;28;80644;-53
2024/03/29 04:43:02;;;;;;;1.30;1.08;;;24.10;44.30;;;;;;6153401;28;80736;-51
2024/03/29 04:46:04;;;;;;;1.55;1.20;;;24.10;44.20;;;;;;6153324;28;80702;-55
2024/03/29 04:49:05;;;;;;;1.00;0.82;;;24.10;44.10;;;;;;6158926;28;81223;-54
2024/03/29 04:52:05;;;;;;;4.93;1.27;;;24.10;44.00;;;;;;6159414;28;80647;-48
2024/03/29 04:55:06;;;;;;;3.03;0.93;;;24.10;44.00;;;;;;6167030;28;80393;-54
2024/03/29 04:58:06;;;;;;;1.13;0.90;;;24.10;44.00;;;;;;6153336;28;80743;-53
2024/03/29 05:01:07;;;;;;;1.20;1.00;;;24.10;43.90;;;;;;6157372;28;80638;-59
2024/03/29 05:04:07;;;;;;;1.73;1.20;;;24.00;43.90;;;;;;6153442;28;81688;-55
2024/03/29 05:07:08;;;;;;;1.75;0.90;;;24.10;44.00;;;;;;6154754;28;83383;-59
2024/03/29 05:10:09;;;;;;;1.27;0.88;;;24.10;44.00;;;;;;6143607;28;82512;-59
2024/03/29 05:13:10;;;;;;;1.13;1.00;;;24.10;44.60;;;;;;6148264;28;80765;-58
2024/03/29 05:16:10;;;;;;;2.03;0.90;;;24.10;44.60;;;;;;6146142;28;81130;-58
2024/03/29 05:19:11;;;;;;;2.22;1.15;;;24.10;44.00;;;;;;6147934;28;81666;-57
2024/03/29 05:22:11;;;;;;;1.90;1.13;;;24.10;44.00;;;;;;6158818;28;80636;-55
2024/03/29 05:25:12;;;;;;;1.73;1.00;;;24.10;44.20;;;;;;6160885;28;80295;-50
2024/03/29 05:28:12;;;;;;;1.42;1.10;;;24.10;44.00;;;;;;6167158;28;80195;-55
2024/03/29 05:31:16;;;;;;;1.55;0.82;;;24.10;44.20;;;;;;6157719;28;80788;-64
2024/03/29 05:34:16;;;;;;;6.63;1.15;;;24.10;44.40;;;;;;6163103;28;81069;-58
2024/03/29 05:37:18;;;;;;;1.95;0.80;;;24.10;44.50;;;;;;6157659;28;80682;-56
2024/03/29 05:40:18;;;;;;;19.13;1.75;;;24.20;44.40;;;;;;6153007;28;87815;-50
2024/03/29 05:43:19;;;;;;;1.50;1.10;;;24.20;44.60;;;;;;6156466;28;81459;-50
2024/03/29 05:46:19;;;;;;;8.73;0.73;;;24.20;44.40;;;;;;6153489;28;80355;-52
2024/03/29 05:49:20;;;;;;;2.28;0.88;;;24.20;44.80;;;;;;6151107;28;80585;-51
2024/03/29 05:52:23;;;;;;;5.57;1.05;;;24.20;45.00;;;;;;6153341;28;80461;-59
2024/03/29 05:55:23;;;;;;;5.20;1.42;;;24.20;44.50;;;;;;6155855;28;82835;-53
2024/03/29 05:58:24;;;;;;;2.50;0.90;;;24.20;44.60;;;;;;6153491;28;81509;-52
2024/03/29 06:01:24;;;;;;;6.50;0.73;;;24.20;44.40;;;;;;6153027;28;80637;-54
2024/03/29 06:04:32;;;;;;;2.03;0.90;;;24.20;44.30;;;;;;6154103;28;80800;-56
2024/03/29 06:07:33;;;;;;;2.35;1.10;;;24.20;44.10;;;;;;6174522;28;80739;-55
2024/03/29 06:10:33;;;;;;;5.00;1.23;;;24.20;44.10;;;;;;6150596;28;81117;-49
2024/03/29 06:20:12;;;;;;;0.70;0.70;;;24.20;43.70;;;;;;6162983;28;80497;-47
2024/03/29 06:23:13;;;;;;;1.88;0.75;;;24.20;43.70;;;;;;6156090;28;86591;-50
2024/03/29 06:26:14;;;;;;;1.15;0.77;;;24.20;43.90;;;;;;6167236;28;80448;-53
2024/03/29 06:29:15;;;;;;;0.85;0.75;;;24.30;44.10;;;;;;6166415;28;80488;-50
2024/03/29 06:32:17;;;;;;;3.22;0.80;;;24.30;44.50;;;;;;6167145;28;80693;-48
2024/03/29 06:35:21;;;;;;;2.92;1.10;;;24.30;44.00;;;;;;6158886;28;80961;-47
2024/03/29 06:38:22;;;;;;;2.40;1.00;;;24.30;44.20;;;;;;6159632;28;80602;-49
2024/03/29 06:41:22;;;;;;;0.77;0.68;;;24.30;44.30;;;;;;6152114;28;80631;-46
2024/03/29 06:44:23;;;;;;;2.67;1.35;;;24.30;44.10;;;;;;6150291;28;82060;-51
2024/03/29 06:47:24;;;;;;;2.60;1.27;;;24.30;44.00;;;;;;6150654;28;84948;-53
2024/03/29 06:50:24;;;;;;;1.63;0.98;;;24.30;44.50;;;;;;6160532;28;81794;-57
2024/03/29 06:53:25;;;;;;;0.93;0.70;;;24.30;44.20;;;;;;6157690;28;81385;-55
2024/03/29 06:56:26;;;;;;;1.70;0.80;;;24.30;44.20;;;;;;6169509;28;80532;-54
2024/03/29 06:59:26;;;;;;;1.77;1.00;;;24.40;44.20;;;;;;6154759;28;83685;-57
2024/03/29 07:02:27;;;;;;;7.07;1.30;;;24.40;44.20;;;;;;6158241;28;83988;-54
2024/03/29 07:05:27;;;;;;;1.35;0.85;;;24.40;44.00;;;;;;6169276;28;81226;-54
2024/03/29 07:08:28;;;;;;;2.42;0.98;;;24.40;44.40;;;;;;6160563;28;80989;-56
2024/03/29 07:11:28;;;;;;;1.52;0.85;;;24.40;44.50;;;;;;6156293;28;81694;-55
2024/03/29 07:14:31;;;;;;;1.05;0.88;;;24.40;44.40;;;;;;6163003;28;80431;-57
2024/03/29 07:17:31;;;;;;;5.95;1.23;;;24.40;44.50;;;;;;6154859;28;80537;-48
2024/03/29 07:20:32;;;;;;;0.90;0.90;;;24.40;44.20;;;;;;6153448;28;80443;-52
2024/03/29 07:23:32;;;;;;;0.90;0.80;;;24.40;44.40;;;;;;6152251;28;80667;-50
2024/03/29 07:26:33;;;;;;;1.20;0.85;;;24.40;44.20;;;;;;6154366;28;80441;-56
2024/03/29 07:29:34;;;;;;;1.50;0.93;;;24.40;44.00;;;;;;6155237;28;88216;-53
2024/03/29 07:32:35;;;;;;;1.88;0.90;;;24.40;43.80;;;;;;6161633;28;80585;-55
2024/03/29 07:35:35;;;;;;;1.48;1.00;;;24.40;44.00;;;;;;6154595;28;82538;-55
2024/03/29 07:38:36;;;;;;;6.55;1.00;;;24.40;44.00;;;;;;6156731;28;81091;-51
2024/03/29 07:41:36;;;;;;;3.50;1.10;;;24.40;44.00;;;;;;6159905;28;80792;-57
2024/03/29 07:44:37;;;;;;;6.05;0.95;;;24.40;44.10;;;;;;6157774;28;80686;-57
2024/03/29 07:47:37;;;;;;;1.45;0.75;;;24.50;44.10;;;;;;6153825;28;80521;-56
2024/03/29 07:50:38;;;;;;;1.30;0.77;;;24.40;44.10;;;;;;6160253;28;80696;-52
2024/03/29 07:53:38;;;;;;;2.60;0.80;;;24.40;44.30;;;;;;6170843;28;80436;-46
2024/03/29 07:56:39;;;;;;;4.50;1.30;;;24.40;44.40;;;;;;6155786;28;80842;-54
2024/03/29 07:59:39;;;;;;;4.50;1.00;;;24.40;44.30;;;;;;6162079;28;80686;-61
2024/03/29 08:02:40;;;;;;;1.50;0.88;;;24.40;44.20;;;;;;6152307;28;81032;-62
2024/03/29 08:05:40;;;;;;;2.45;0.98;;;24.40;44.00;;;;;;6162410;28;80818;-62
2024/03/29 08:08:41;;;;;;;3.47;0.98;;;24.40;44.20;;;;;;6175534;28;81351;-60
2024/03/29 08:11:41;;;;;;;0.88;0.80;;;24.40;44.20;;;;;;6163903;28;80406;-62
2024/03/29 08:14:42;;;;;;;2.47;1.20;;;24.40;44.20;;;;;;6171352;28;80356;-61
2024/03/29 08:17:42;;;;;;;2.85;1.05;;;24.40;44.10;;;;;;6152498;28;80627;-61
2024/03/29 08:20:43;;;;;;;2.03;0.88;;;24.40;44.00;;;;;;6164229;28;80561;-63
2024/03/29 08:23:46;;;;;;;1.75;0.90;;;24.40;44.00;;;;;;6151387;28;86297;-62
2024/03/29 08:26:46;;;;;;;5.07;1.02;;;24.40;43.90;;;;;;6153697;28;80330;-62
2024/03/29 08:29:49;;;;;;;1.90;1.08;;;24.40;43.90;;;;;;6155102;28;80542;-63
2024/03/29 08:32:51;;;;;;;2.28;0.98;;;24.40;43.80;;;;;;6163739;28;81443;-61
2024/03/29 08:35:52;;;;;;;1.65;0.77;;;24.50;43.90;;;;;;6162631;28;80661;-60
2024/03/29 08:38:52;;;;;;;2.55;0.90;;;24.50;43.70;;;;;;6164604;28;80610;-62
2024/03/29 08:41:53;;;;;;;1.25;1.08;;;24.50;43.60;;;;;;6166627;28;80623;-62
2024/03/29 08:44:53;;;;;;;3.45;0.93;;;24.50;43.50;;;;;;6174446;28;80389;-62
2024/03/29 08:47:54;;;;;;;1.58;0.95;;;24.60;43.50;;;;;;6157051;28;80364;-63
2024/03/29 08:50:54;;;;;;;1.00;0.82;;;24.60;43.50;;;;;;6162229;28;80842;-62
2024/03/29 08:53:57;;;;;;;2.58;1.20;;;24.60;43.60;;;;;;6179430;28;80765;-62
2024/03/29 08:56:59;;;;;;;1.35;0.80;;;24.60;43.60;;;;;;6174114;28;80301;-62
2024/03/29 08:59:59;;;;;;;1.80;0.95;;;24.60;43.30;;;;;;6154232;28;85231;-62
2024/03/29 09:03:01;;;;;;;2.10;0.95;;;24.60;43.20;;;;;;6154732;28;80764;-63
2024/03/29 09:06:02;;;;;;;1.95;1.00;;;24.60;43.20;;;;;;6154375;28;80318;-63
2024/03/29 09:09:03;;;;;;;1.80;0.90;;;24.60;43.20;;;;;;6166629;28;80390;-63
2024/03/29 09:12:03;;;;;;;1.67;1.00;;;24.60;43.20;;;;;;6155225;28;81978;-63
2024/03/29 09:15:08;;;;;;;1.52;1.00;;;24.60;43.20;;;;;;6144955;28;82133;-61
2024/03/29 09:18:26;;;;;;;2.78;0.73;;;24.60;43.10;;;;;;6164392;28;80412;-62
2024/03/29 09:21:27;;;;;;;1.52;0.80;;;24.60;43.10;;;;;;6169910;28;80519;-64
2024/03/29 09:24:27;;;;;;;2.72;1.02;;;24.60;43.20;;;;;;6154224;28;82463;-63
2024/03/29 09:27:28;;;;;;;1.75;0.80;;;24.70;43.30;;;;;;6154345;28;80919;-61
2024/03/29 09:30:28;;;;;;;3.40;0.90;;;24.70;43.30;;;;;;6155526;28;82893;-53
2024/03/29 09:33:29;;;;;;;1.33;0.80;;;24.70;43.10;;;;;;6163944;28;81579;-50
2024/03/29 09:36:29;;;;;;;1.25;0.73;;;24.80;43.10;;;;;;6153362;28;80212;-52
2024/03/29 09:39:30;;;;;;;2.25;0.85;;;24.80;43.10;;;;;;6153021;28;81930;-52
2024/03/29 09:42:31;;;;;;;1.42;0.80;;;24.80;43.10;;;;;;6151945;28;80946;-51
2024/03/29 09:45:32;;;;;;;0.73;0.73;;;24.80;43.00;;;;;;6152617;28;80579;-52
2024/03/29 09:48:36;;;;;;;1.50;1.00;;;24.80;43.00;;;;;;6152711;28;82977;-63
2024/03/29 09:51:37;;;;;;;1.45;0.85;;;24.90;43.00;;;;;;6165891;28;80193;-62
2024/03/29 09:54:37;;;;;;;1.67;0.70;;;24.90;43.00;;;;;;6178151;28;80329;-60
2024/03/29 09:57:38;;;;;;;1.85;0.70;;;24.90;42.90;;;;;;6162819;28;80861;-60
2024/03/29 10:00:38;;;;;;;1.40;0.98;;;24.90;42.90;;;;;;6156102;28;80239;-61
2024/03/29 10:03:39;;;;;;;1.42;0.80;;;24.90;42.70;;;;;;6159660;28;80997;-62
2024/03/29 10:06:39;;;;;;;1.77;0.73;;;24.90;42.80;;;;;;6172096;28;80690;-61
2024/03/29 10:09:40;;;;;;;0.80;0.80;;;25.00;42.80;;;;;;6153345;28;82932;-60
2024/03/29 10:12:40;;;;;;;0.77;0.60;;;25.00;42.60;;;;;;6153163;28;80437;-61
2024/03/29 10:15:47;;;;;;;1.02;0.70;;;25.00;42.60;;;;;;6153276;28;80736;-62
2024/03/29 10:18:47;;;;;;;1.38;0.82;;;25.00;42.60;;;;;;6153705;28;80984;-61
2024/03/29 10:21:48;;;;;;;0.80;0.80;;;25.00;42.50;;;;;;6152299;28;80638;-62
2024/03/29 10:24:48;;;;;;;0.63;0.60;;;25.00;42.30;;;;;;6165304;28;80406;-63
2024/03/29 10:27:49;;;;;;;1.70;0.80;;;25.10;42.30;;;;;;6153382;28;80653;-52
2024/03/29 10:30:49;;;;;;;1.05;0.75;;;25.10;42.30;;;;;;6151480;28;81265;-51
2024/03/29 10:33:52;;;;;;;0.70;0.65;;;25.10;42.10;;;;;;6157673;28;80760;-53
2024/03/29 10:36:53;;;;;;;1.58;0.98;;;25.10;42.20;;;;;;6152635;28;80377;-57
2024/03/29 10:39:53;;;;;;;3.45;0.85;;;25.10;42.20;;;;;;6153998;28;81009;-54
2024/03/29 10:42:54;;;;;;;1.10;1.00;;;24.60;35.30;;;;;;6151459;28;81247;-56
2024/03/29 10:45:58;;;;;;;2.25;0.80;;;24.30;34.90;;;;;;6163147;28;81131;-55
2024/03/29 10:48:59;;;;;;;3.40;1.10;;;24.00;34.60;;;;;;6153466;28;81210;-54
2024/03/29 10:52:00;;;;;;;2.00;1.00;;;23.90;34.70;;;;;;6154113;28;80736;-55
2024/03/29 10:55:00;;;;;;;4.85;0.90;;;24.00;33.70;;;;;;6155823;28;82336;-54
2024/03/29 10:58:01;;;;;;;4.53;1.00;;;23.50;33.20;;;;;;6156946;28;80922;-55
2024/03/29 11:01:01;;;;;;;1.05;0.75;;;23.10;33.20;;;;;;6154777;28;82256;-54
2024/03/29 11:04:04;;;;;;;1.27;0.90;;;23.00;32.80;;;;;;6154952;28;80502;-55
2024/03/29 11:07:04;;;;;;;3.38;0.70;;;23.00;33.00;;;;;;6156698;28;80992;-52
2024/03/29 11:10:05;;;;;;;0.77;0.60;;;23.00;32.80;;;;;;6155125;28;80168;-53
2024/03/29 11:13:06;;;;;;;0.63;0.63;;;23.10;32.80;;;;;;6154402;28;80623;-55
2024/03/29 11:16:06;;;;;;;0.98;0.73;;;23.20;32.80;;;;;;6154580;28;80584;-54
2024/03/29 11:19:07;;;;;;;1.40;0.70;;;23.00;32.00;;;;;;6154955;28;80982;-50
2024/03/29 11:22:07;;;;;;;4.75;0.80;;;22.90;31.70;;;;;;6154943;28;80780;-56
2024/03/29 11:25:08;;;;;;;0.80;0.60;;;22.90;31.60;;;;;;6156497;28;81395;-55
2024/03/29 11:28:09;;;;;;;2.03;0.70;;;23.00;32.30;;;;;;6166646;28;80858;-54
2024/03/29 11:31:10;;;;;;;0.75;0.60;;;22.90;31.60;;;;;;6160389;28;80605;-54
2024/03/29 11:34:10;;;;;;;2.67;0.80;;;22.80;31.40;;;;;;6156615;28;81725;-55
2024/03/29 11:37:11;;;;;;;1.48;0.70;;;23.00;31.70;;;;;;6171797;28;86587;-55
2024/03/29 11:40:12;;;;;;;0.60;0.60;;;23.10;32.20;;;;;;6161267;28;80346;-58
2024/03/29 11:43:12;;;;;;;0.65;0.55;;;23.10;30.60;;;;;;6156471;28;82930;-58
2024/03/29 11:46:13;;;;;;;0.70;0.40;;;23.30;30.80;;;;;;6168201;28;80847;-58
2024/03/29 11:49:13;;;;;;;0.50;0.50;;;23.20;30.10;;;;;;6164893;28;80505;-59
2024/03/29 11:52:14;;;;;;;3.80;0.65;;;23.10;30.20;;;;;;6167892;28;80482;-58
2024/03/29 11:55:15;;;;;;;4.03;0.60;;;23.40;30.40;;;;;;6161044;28;81204;-58
2024/03/29 11:58:15;;;;;;;1.10;0.57;;;23.50;30.50;;;;;;6159823;28;83414;-51
2024/03/29 12:01:16;;;;;;;8.50;0.75;;;23.50;30.70;;;;;;6157763;28;81346;-52
2024/03/29 12:04:17;;;;;;;3.03;0.63;;;23.50;30.70;;;;;;6153278;28;80633;-53
2024/03/29 12:07:17;;;;;;;0.40;0.40;;;23.50;30.90;;;;;;6169289;28;81654;-53
2024/03/29 12:10:18;;;;;;;2.78;0.73;;;23.40;30.80;;;;;;6154000;28;81874;-52
2024/03/29 12:13:18;;;;;;;10.90;1.15;;;23.50;31.10;;;;;;6155491;28;80149;-52
2024/03/29 12:16:19;;;;;;;2.95;0.60;;;23.50;31.00;;;;;;6157284;28;82047;-56
2024/03/29 12:19:19;;;;;;;3.40;0.82;;;23.40;30.30;;;;;;6154272;28;80862;-58
2024/03/29 12:22:20;;;;;;;2.50;0.60;;;23.30;31.10;;;;;;6156025;28;82314;-58
2024/03/29 12:25:21;;;;;;;0.60;0.60;;;23.40;30.50;;;;;;6155187;28;82243;-57
2024/03/29 12:28:21;;;;;;;1.13;0.50;;;23.60;30.60;;;;;;6155677;28;80442;-53
2024/03/29 12:31:22;;;;;;;0.80;0.70;;;23.80;30.70;;;;;;6160025;28;81167;-56
2024/03/29 12:34:22;;;;;;;0.47;0.47;;;23.80;30.50;;;;;;6152700;28;80334;-52
2024/03/29 12:37:25;;;;;;;1.20;0.80;;;23.70;30.70;;;;;;6155011;28;84145;-52
2024/03/29 12:40:26;;;;;;;9.10;0.88;;;24.00;31.20;;;;;;6169762;28;80335;-57
2024/03/29 12:43:27;;;;;;;0.77;0.63;;;24.10;31.40;;;;;;6143377;28;85720;-49
2024/03/29 12:46:28;;;;;;;0.73;0.60;;;24.10;31.40;;;;;;6149334;28;81905;-54
2024/03/29 12:49:28;;;;;;;0.85;0.47;;;24.30;32.10;;;;;;6151924;28;81484;-53
2024/03/29 12:52:29;;;;;;;1.20;0.70;;;24.30;31.80;;;;;;6156997;28;81398;-59
2024/03/29 12:55:36;;;;;;;1.00;0.80;;;24.30;30.90;;;;;;6157623;28;82373;-60
2024/03/29 12:58:37;;;;;;;0.68;0.57;;;24.30;30.80;;;;;;6158812;28;81588;-59
2024/03/29 13:01:38;;;;;;;1.23;0.60;;;24.30;30.80;;;;;;6157018;28;82645;-59
2024/03/29 13:04:43;;;;;;;0.57;0.57;;;24.20;30.90;;;;;;6156303;28;83608;-61
2024/03/29 13:07:44;;;;;;;3.33;0.87;;;24.30;31.00;;;;;;6157277;28;81640;-60
2024/03/29 13:10:44;;;;;;;0.57;0.57;;;24.30;30.80;;;;;;6160728;28;81348;-60
2024/03/29 13:13:45;;;;;;;1.02;0.60;;;24.30;30.90;;;;;;6154535;28;81758;-60
2024/03/29 13:16:45;;;;;;;0.40;0.40;;;24.30;30.90;;;;;;6156349;28;81140;-60
2024/03/29 13:19:46;;;;;;;1.90;0.80;;;24.30;31.00;;;;;;6156833;28;80649;-59
2024/03/29 13:22:47;;;;;;;2.13;0.60;;;24.40;31.30;;;;;;6155721;28;80608;-59
2024/03/29 13:25:48;;;;;;;3.33;0.77;;;24.30;31.30;;;;;;6151200;28;81449;-58
2024/03/29 13:28:49;;;;;;;1.00;0.75;;;24.30;31.60;;;;;;6157262;28;82278;-60
2024/03/29 13:31:49;;;;;;;2.30;0.90;;;24.20;31.30;;;;;;6156309;28;82885;-56
2024/03/29 13:34:50;;;;;;;1.58;0.80;;;24.30;31.70;;;;;;6154638;28;80988;-54
2024/03/29 13:37:51;;;;;;;0.60;0.60;;;24.30;32.30;;;;;;6159495;28;81618;-51
2024/03/29 13:40:51;;;;;;;1.13;0.50;;;24.40;33.10;;;;;;6153568;28;81940;-53
2024/03/29 13:43:52;;;;;;;2.22;1.00;;;24.10;33.30;;;;;;6152582;28;81399;-53
2024/03/29 13:46:53;;;;;;;1.33;1.08;;;24.10;34.30;;;;;;6154813;28;81399;-55
2024/03/29 13:49:55;;;;;;;2.17;0.85;;;24.00;34.00;;;;;;6148302;28;83539;-53
2024/03/29 13:52:56;;;;;;;1.85;0.77;;;23.70;34.20;;;;;;6148723;28;83272;-54
2024/03/29 13:55:56;;;;;;;1.27;0.80;;;23.70;34.40;;;;;;6156836;28;80361;-55
2024/03/29 13:58:57;;;;;;;1.67;0.80;;;23.80;34.70;;;;;;6156080;28;82887;-51
2024/03/29 14:01:57;;;;;;;1.50;0.80;;;23.70;34.70;;;;;;6155865;28;80860;-53
2024/03/29 14:04:58;;;;;;;2.67;1.05;;;23.70;35.50;;;;;;6150929;28;84430;-52
2024/03/29 14:07:59;;;;;;;2.03;1.00;;;23.60;35.90;;;;;;6158660;28;80333;-54
2024/03/29 14:11:00;;;;;;;1.45;0.90;;;23.30;35.70;;;;;;6153585;28;80956;-50
2024/03/29 14:14:00;;;;;;;3.33;0.90;;;23.20;36.20;;;;;;6147233;28;81823;-51
2024/03/29 14:17:04;;;;;;;2.60;0.90;;;23.10;36.60;;;;;;6150555;28;82434;-54
2024/03/29 14:20:04;;;;;;;4.20;0.98;;;22.90;37.00;;;;;;6150737;28;81297;-54
2024/03/29 14:23:06;;;;;;;1.88;0.90;;;22.90;37.50;;;;;;6151067;28;80690;-55
2024/03/29 14:26:06;;;;;;;2.30;1.00;;;22.80;37.80;;;;;;6153860;28;81045;-55
2024/03/29 14:29:07;;;;;;;2.15;0.90;;;22.70;37.70;;;;;;6147916;28;80884;-56
2024/03/29 14:32:08;;;;;;;2.10;1.10;;;22.50;37.50;;;;;;6170204;28;80846;-56
2024/03/29 14:35:10;;;;;;;2.08;1.02;;;22.50;37.80;;;;;;6159429;28;80597;-55
2024/03/29 14:38:11;;;;;;;3.45;1.23;;;22.40;38.10;;;;;;6158012;28;80731;-56
2024/03/29 14:41:11;;;;;;;1.90;1.20;;;22.30;38.20;;;;;;6154382;28;82598;-56
2024/03/29 14:44:12;;;;;;;3.63;1.00;;;22.20;38.40;;;;;;6152487;28;80733;-55
2024/03/29 14:47:14;;;;;;;2.50;1.10;;;22.30;38.70;;;;;;6151033;28;80504;-56
2024/03/29 14:50:15;;;;;;;5.53;1.25;;;22.40;39.00;;;;;;6150880;28;81319;-57
2024/03/29 14:53:15;;;;;;;4.50;1.10;;;22.20;38.70;;;;;;6151255;28;80890;-53
2024/03/29 14:56:16;;;;;;;1.38;0.80;;;22.10;38.80;;;;;;6153238;28;80936;-57
2024/03/29 14:59:17;;;;;;;7.60;1.60;;;22.00;39.00;;;;;;6147971;28;81441;-56
2024/03/29 15:02:17;;;;;;;1.55;1.10;;;21.90;39.20;;;;;;6151965;28;82484;-51
2024/03/29 15:05:18;;;;;;;3.85;1.42;;;22.00;39.30;;;;;;6160441;28;80238;-54
2024/03/29 15:08:18;;;;;;;2.28;1.10;;;21.80;39.30;;;;;;6157047;28;81217;-51
2024/03/29 15:11:19;;;;;;;5.55;1.23;;;21.70;39.70;;;;;;6151946;28;81091;-52
2024/03/29 15:14:20;;;;;;;3.80;1.63;;;21.70;39.90;;;;;;6151790;28;81210;-52
2024/03/29 15:17:21;;;;;;;4.07;1.60;;;21.80;39.70;;;;;;6151241;28;81759;-52
2024/03/29 15:20:22;;;;;;;3.65;1.35;;;21.90;40.60;;;;;;6162748;28;81038;-49
2024/03/29 15:23:26;;;;;;;2.28;1.48;;;22.10;40.10;;;;;;6151921;28;80271;-55
2024/03/29 15:26:27;;;;;;;4.50;1.40;;;22.00;40.00;;;;;;6149209;28;81660;-50
2024/03/29 15:29:27;;;;;;;2.92;1.10;;;22.00;40.10;;;;;;6150363;28;80388;-49
2024/03/29 15:32:32;;;;;;;1.75;1.10;;;21.80;40.30;;;;;;6157135;28;80494;-52
2024/03/29 15:35:32;;;;;;;3.03;1.23;;;22.10;41.60;;;;;;6145580;28;81349;-52
2024/03/29 15:38:33;;;;;;;7.22;1.50;;;22.40;42.90;;;;;;6155214;28;80217;-52
2024/03/29 15:41:33;;;;;;;5.40;1.58;;;22.60;44.30;;;;;;6176267;28;80916;-50
2024/03/29 15:44:34;;;;;;;2.47;1.38;;;22.80;43.60;;;;;;6158608;28;83207;-56
2024/03/29 15:47:35;;;;;;;2.70;1.45;;;23.00;44.10;;;;;;6161074;28;80684;-53
2024/03/29 15:50:37;;;;;;;3.40;1.55;;;23.10;44.50;;;;;;6151635;28;81443;-56
2024/03/29 15:53:38;;;;;;;2.92;1.40;;;23.20;45.30;;;;;;6137576;28;80307;-53